sensor_id;sensor_type;location;lat;lon;timestamp;P1;durP1;ratioP1;P2;durP2;ratioP2
51292;SDS011;37377;45.186;9.778;2022-12-18T00:02:12;112.53;;;51.25;;
51292;SDS011;37377;45.186;9.778;2022-12-18T00:04:39;138.05;;;53.88;;
51292;SDS011;37377;45.186;9.778;2022-12-18T00:07:06;100.15;;;54.30;;
51292;SDS011;37377;45.186;9.778;2022-12-18T00:09:33;103.38;;;51.28;;
51292;SDS011;37377;45.186;9.778;2022-12-18T00:12:06;90.95;;;51.55;;
51292;SDS011;37377;45.186;9.778;2022-12-18T00:14:41;102.32;;;54.50;;
51292;SDS011;37377;45.186;9.778;2022-12-18T00:17:08;126.95;;;54.10;;
51292;SDS011;37377;45.186;9.778;2022-12-18T00:19:35;89.53;;;51.22;;
51292;SDS011;37377;45.186;9.778;2022-12-18T00:22:02;105.20;;;50.03;;
51292;SDS011;37377;45.186;9.778;2022-12-18T00:24:29;97.97;;;51.72;;
51292;SDS011;37377;45.186;9.778;2022-12-18T00:26:55;93.03;;;53.45;;
51292;SDS011;37377;45.186;9.778;2022-12-18T00:29:22;95.90;;;53.08;;
51292;SDS011;37377;45.186;9.778;2022-12-18T00:31:49;112.38;;;54.17;;
51292;SDS011;37377;45.186;9.778;2022-12-18T00:34:16;109.60;;;55.20;;
51292;SDS011;37377;45.186;9.778;2022-12-18T00:36:43;95.60;;;50.97;;
51292;SDS011;37377;45.186;9.778;2022-12-18T00:39:11;102.82;;;53.47;;
51292;SDS011;37377;45.186;9.778;2022-12-18T00:41:38;94.40;;;53.70;;
51292;SDS011;37377;45.186;9.778;2022-12-18T00:44:24;139.20;;;52.47;;
51292;SDS011;37377;45.186;9.778;2022-12-18T00:46:51;92.93;;;54.28;;
51292;SDS011;37377;45.186;9.778;2022-12-18T00:49:18;95.28;;;53.05;;
51292;SDS011;37377;45.186;9.778;2022-12-18T00:51:45;102.25;;;53.97;;
51292;SDS011;37377;45.186;9.778;2022-12-18T00:54:13;92.47;;;54.45;;
51292;SDS011;37377;45.186;9.778;2022-12-18T00:56:39;95.57;;;54.55;;
51292;SDS011;37377;45.186;9.778;2022-12-18T00:59:14;98.75;;;52.30;;
51292;SDS011;37377;45.186;9.778;2022-12-18T01:01:42;96.82;;;52.88;;
51292;SDS011;37377;45.186;9.778;2022-12-18T01:04:09;100.65;;;53.50;;
51292;SDS011;37377;45.186;9.778;2022-12-18T01:06:36;98.13;;;51.90;;
51292;SDS011;37377;45.186;9.778;2022-12-18T01:09:03;126.75;;;53.97;;
51292;SDS011;37377;45.186;9.778;2022-12-18T01:11:30;100.40;;;50.85;;
51292;SDS011;37377;45.186;9.778;2022-12-18T01:13:57;96.30;;;49.10;;
51292;SDS011;37377;45.186;9.778;2022-12-18T01:16:24;84.43;;;49.13;;
51292;SDS011;37377;45.186;9.778;2022-12-18T01:18:52;116.28;;;48.88;;
51292;SDS011;37377;45.186;9.778;2022-12-18T01:21:19;91.35;;;49.38;;
51292;SDS011;37377;45.186;9.778;2022-12-18T01:23:50;105.47;;;50.65;;
51292;SDS011;37377;45.186;9.778;2022-12-18T01:26:17;82.30;;;47.80;;
51292;SDS011;37377;45.186;9.778;2022-12-18T01:28:44;87.40;;;47.55;;
51292;SDS011;37377;45.186;9.778;2022-12-18T01:33:38;95.07;;;48.03;;
51292;SDS011;37377;45.186;9.778;2022-12-18T01:36:05;80.72;;;46.85;;
51292;SDS011;37377;45.186;9.778;2022-12-18T01:38:32;100.45;;;47.35;;
51292;SDS011;37377;45.186;9.778;2022-12-18T01:40:59;82.47;;;47.15;;
51292;SDS011;37377;45.186;9.778;2022-12-18T01:46:08;81.22;;;46.35;;
51292;SDS011;37377;45.186;9.778;2022-12-18T01:48:35;83.88;;;46.35;;
51292;SDS011;37377;45.186;9.778;2022-12-18T01:51:03;83.95;;;44.65;;
51292;SDS011;37377;45.186;9.778;2022-12-18T01:53:30;79.93;;;44.13;;
51292;SDS011;37377;45.186;9.778;2022-12-18T01:55:57;86.07;;;45.45;;
51292;SDS011;37377;45.186;9.778;2022-12-18T02:01:01;81.50;;;44.42;;
51292;SDS011;37377;45.186;9.778;2022-12-18T02:03:31;79.70;;;43.75;;
51292;SDS011;37377;45.186;9.778;2022-12-18T02:08:47;74.18;;;39.75;;
51292;SDS011;37377;45.186;9.778;2022-12-18T02:16:29;70.72;;;38.15;;
51292;SDS011;37377;45.186;9.778;2022-12-18T02:18:59;70.22;;;37.70;;
51292;SDS011;37377;45.186;9.778;2022-12-18T02:21:36;73.32;;;37.65;;
51292;SDS011;37377;45.186;9.778;2022-12-18T02:24:18;67.45;;;36.90;;
51292;SDS011;37377;45.186;9.778;2022-12-18T02:26:50;66.55;;;37.20;;
51292;SDS011;37377;45.186;9.778;2022-12-18T02:29:55;64.90;;;37.85;;
51292;SDS011;37377;45.186;9.778;2022-12-18T02:32:27;60.35;;;34.63;;
51292;SDS011;37377;45.186;9.778;2022-12-18T02:34:55;60.55;;;35.47;;
51292;SDS011;37377;45.186;9.778;2022-12-18T02:37:24;59.10;;;33.92;;
51292;SDS011;37377;45.186;9.778;2022-12-18T02:39:53;54.90;;;33.38;;
51292;SDS011;37377;45.186;9.778;2022-12-18T02:42:21;57.65;;;34.33;;
51292;SDS011;37377;45.186;9.778;2022-12-18T02:44:49;55.92;;;34.28;;
51292;SDS011;37377;45.186;9.778;2022-12-18T02:47:21;52.38;;;33.03;;
51292;SDS011;37377;45.186;9.778;2022-12-18T02:52:34;58.42;;;35.28;;
51292;SDS011;37377;45.186;9.778;2022-12-18T03:03:35;67.75;;;36.08;;
51292;SDS011;37377;45.186;9.778;2022-12-18T03:06:05;65.85;;;35.88;;
51292;SDS011;37377;45.186;9.778;2022-12-18T03:08:44;78.18;;;40.55;;
51292;SDS011;37377;45.186;9.778;2022-12-18T03:11:15;76.38;;;43.90;;
51292;SDS011;37377;45.186;9.778;2022-12-18T03:13:43;85.97;;;45.58;;
51292;SDS011;37377;45.186;9.778;2022-12-18T03:16:14;83.28;;;45.40;;
51292;SDS011;37377;45.186;9.778;2022-12-18T03:18:45;82.15;;;46.60;;
51292;SDS011;37377;45.186;9.778;2022-12-18T03:21:14;101.78;;;49.72;;
51292;SDS011;37377;45.186;9.778;2022-12-18T03:23:43;89.03;;;47.42;;
51292;SDS011;37377;45.186;9.778;2022-12-18T03:26:13;88.88;;;46.83;;
51292;SDS011;37377;45.186;9.778;2022-12-18T03:28:43;89.10;;;46.70;;
51292;SDS011;37377;45.186;9.778;2022-12-18T03:31:11;87.60;;;45.58;;
51292;SDS011;37377;45.186;9.778;2022-12-18T03:33:41;85.13;;;45.95;;
51292;SDS011;37377;45.186;9.778;2022-12-18T03:36:09;94.38;;;44.60;;
51292;SDS011;37377;45.186;9.778;2022-12-18T03:38:37;79.97;;;44.80;;
51292;SDS011;37377;45.186;9.778;2022-12-18T03:46:28;69.03;;;40.67;;
51292;SDS011;37377;45.186;9.778;2022-12-18T03:49:01;78.35;;;43.10;;
51292;SDS011;37377;45.186;9.778;2022-12-18T03:51:37;68.35;;;41.60;;
51292;SDS011;37377;45.186;9.778;2022-12-18T03:54:06;66.75;;;40.95;;
51292;SDS011;37377;45.186;9.778;2022-12-18T03:56:45;74.13;;;42.50;;
51292;SDS011;37377;45.186;9.778;2022-12-18T03:59:15;75.85;;;38.97;;
51292;SDS011;37377;45.186;9.778;2022-12-18T04:01:45;73.32;;;40.80;;
51292;SDS011;37377;45.186;9.778;2022-12-18T04:04:14;76.82;;;41.42;;
51292;SDS011;37377;45.186;9.778;2022-12-18T04:06:43;72.85;;;40.20;;
51292;SDS011;37377;45.186;9.778;2022-12-18T04:09:11;74.78;;;41.72;;
51292;SDS011;37377;45.186;9.778;2022-12-18T04:11:43;69.20;;;41.03;;
51292;SDS011;37377;45.186;9.778;2022-12-18T04:14:12;69.57;;;38.72;;
51292;SDS011;37377;45.186;9.778;2022-12-18T04:16:44;70.95;;;39.80;;
51292;SDS011;37377;45.186;9.778;2022-12-18T04:19:14;65.25;;;38.78;;
51292;SDS011;37377;45.186;9.778;2022-12-18T04:21:43;67.28;;;40.70;;
51292;SDS011;37377;45.186;9.778;2022-12-18T04:24:11;68.50;;;39.63;;
51292;SDS011;37377;45.186;9.778;2022-12-18T04:26:46;67.28;;;38.65;;
51292;SDS011;37377;45.186;9.778;2022-12-18T04:29:17;67.10;;;37.42;;
51292;SDS011;37377;45.186;9.778;2022-12-18T04:31:44;71.38;;;40.15;;
51292;SDS011;37377;45.186;9.778;2022-12-18T04:34:11;68.55;;;39.90;;
51292;SDS011;37377;45.186;9.778;2022-12-18T04:36:46;71.10;;;39.00;;
51292;SDS011;37377;45.186;9.778;2022-12-18T04:39:13;72.57;;;39.17;;
51292;SDS011;37377;45.186;9.778;2022-12-18T04:41:40;67.78;;;37.88;;
51292;SDS011;37377;45.186;9.778;2022-12-18T04:44:08;66.45;;;37.50;;
51292;SDS011;37377;45.186;9.778;2022-12-18T04:46:35;68.05;;;39.75;;
51292;SDS011;37377;45.186;9.778;2022-12-18T04:49:02;71.32;;;39.00;;
51292;SDS011;37377;45.186;9.778;2022-12-18T04:51:28;72.68;;;39.22;;
51292;SDS011;37377;45.186;9.778;2022-12-18T04:53:55;61.88;;;37.15;;
51292;SDS011;37377;45.186;9.778;2022-12-18T04:56:22;69.28;;;37.72;;
51292;SDS011;37377;45.186;9.778;2022-12-18T04:58:49;66.22;;;37.30;;
51292;SDS011;37377;45.186;9.778;2022-12-18T05:01:16;69.15;;;38.60;;
51292;SDS011;37377;45.186;9.778;2022-12-18T05:03:43;66.38;;;36.88;;
51292;SDS011;37377;45.186;9.778;2022-12-18T05:06:11;74.20;;;38.88;;
51292;SDS011;37377;45.186;9.778;2022-12-18T05:08:37;66.07;;;35.92;;
51292;SDS011;37377;45.186;9.778;2022-12-18T05:11:05;70.25;;;37.78;;
51292;SDS011;37377;45.186;9.778;2022-12-18T05:13:33;71.53;;;36.38;;
51292;SDS011;37377;45.186;9.778;2022-12-18T05:15:59;65.30;;;35.28;;
51292;SDS011;37377;45.186;9.778;2022-12-18T05:18:26;69.72;;;35.70;;
51292;SDS011;37377;45.186;9.778;2022-12-18T05:20:53;66.38;;;36.00;;
51292;SDS011;37377;45.186;9.778;2022-12-18T05:23:21;62.45;;;33.33;;
51292;SDS011;37377;45.186;9.778;2022-12-18T05:26:06;64.13;;;35.38;;
51292;SDS011;37377;45.186;9.778;2022-12-18T05:28:34;63.55;;;33.08;;
51292;SDS011;37377;45.186;9.778;2022-12-18T05:31:02;65.88;;;33.65;;
51292;SDS011;37377;45.186;9.778;2022-12-18T05:33:30;65.22;;;33.15;;
51292;SDS011;37377;45.186;9.778;2022-12-18T05:35:57;60.15;;;32.40;;
51292;SDS011;37377;45.186;9.778;2022-12-18T05:38:25;59.65;;;31.85;;
51292;SDS011;37377;45.186;9.778;2022-12-18T05:40:52;66.95;;;33.88;;
51292;SDS011;37377;45.186;9.778;2022-12-18T05:43:19;62.83;;;33.90;;
51292;SDS011;37377;45.186;9.778;2022-12-18T05:45:48;61.00;;;32.05;;
51292;SDS011;37377;45.186;9.778;2022-12-18T05:48:15;53.85;;;30.50;;
51292;SDS011;37377;45.186;9.778;2022-12-18T05:50:42;60.47;;;30.95;;
51292;SDS011;37377;45.186;9.778;2022-12-18T05:53:12;58.42;;;31.02;;
51292;SDS011;37377;45.186;9.778;2022-12-18T05:55:40;61.92;;;31.80;;
51292;SDS011;37377;45.186;9.778;2022-12-18T05:58:08;64.53;;;32.80;;
51292;SDS011;37377;45.186;9.778;2022-12-18T06:00:36;64.35;;;32.03;;
51292;SDS011;37377;45.186;9.778;2022-12-18T06:03:07;67.97;;;33.42;;
51292;SDS011;37377;45.186;9.778;2022-12-18T06:05:36;68.30;;;32.92;;
51292;SDS011;37377;45.186;9.778;2022-12-18T06:08:03;68.93;;;33.00;;
51292;SDS011;37377;45.186;9.778;2022-12-18T06:10:31;65.68;;;32.33;;
51292;SDS011;37377;45.186;9.778;2022-12-18T06:12:58;68.03;;;32.03;;
51292;SDS011;37377;45.186;9.778;2022-12-18T06:15:24;62.47;;;31.65;;
51292;SDS011;37377;45.186;9.778;2022-12-18T06:17:51;64.20;;;32.97;;
51292;SDS011;37377;45.186;9.778;2022-12-18T06:20:18;77.70;;;34.33;;
51292;SDS011;37377;45.186;9.778;2022-12-18T06:22:45;69.25;;;34.50;;
51292;SDS011;37377;45.186;9.778;2022-12-18T06:25:12;63.58;;;33.15;;
51292;SDS011;37377;45.186;9.778;2022-12-18T06:27:39;58.50;;;31.13;;
51292;SDS011;37377;45.186;9.778;2022-12-18T06:30:07;58.95;;;31.10;;
51292;SDS011;37377;45.186;9.778;2022-12-18T06:32:34;55.03;;;31.38;;
51292;SDS011;37377;45.186;9.778;2022-12-18T06:35:01;53.80;;;30.25;;
51292;SDS011;37377;45.186;9.778;2022-12-18T06:37:28;53.45;;;29.98;;
51292;SDS011;37377;45.186;9.778;2022-12-18T06:39:54;46.33;;;27.13;;
51292;SDS011;37377;45.186;9.778;2022-12-18T06:42:23;48.28;;;28.60;;
51292;SDS011;37377;45.186;9.778;2022-12-18T06:44:49;45.47;;;28.45;;
51292;SDS011;37377;45.186;9.778;2022-12-18T06:47:16;46.63;;;27.50;;
51292;SDS011;37377;45.186;9.778;2022-12-18T06:49:43;46.80;;;28.58;;
51292;SDS011;37377;45.186;9.778;2022-12-18T06:52:10;52.97;;;29.05;;
51292;SDS011;37377;45.186;9.778;2022-12-18T06:54:36;53.28;;;28.20;;
51292;SDS011;37377;45.186;9.778;2022-12-18T06:57:03;47.38;;;27.05;;
51292;SDS011;37377;45.186;9.778;2022-12-18T06:59:30;47.88;;;27.55;;
51292;SDS011;37377;45.186;9.778;2022-12-18T07:01:56;51.67;;;29.42;;
51292;SDS011;37377;45.186;9.778;2022-12-18T07:04:28;50.75;;;30.33;;
51292;SDS011;37377;45.186;9.778;2022-12-18T07:06:55;67.10;;;30.15;;
51292;SDS011;37377;45.186;9.778;2022-12-18T07:09:22;55.50;;;31.42;;
51292;SDS011;37377;45.186;9.778;2022-12-18T07:11:49;55.78;;;31.67;;
51292;SDS011;37377;45.186;9.778;2022-12-18T07:14:16;60.83;;;30.80;;
51292;SDS011;37377;45.186;9.778;2022-12-18T07:16:43;52.47;;;30.25;;
51292;SDS011;37377;45.186;9.778;2022-12-18T07:19:10;50.80;;;28.90;;
51292;SDS011;37377;45.186;9.778;2022-12-18T07:21:37;56.25;;;31.80;;
51292;SDS011;37377;45.186;9.778;2022-12-18T07:24:03;52.92;;;30.10;;
51292;SDS011;37377;45.186;9.778;2022-12-18T07:26:30;49.78;;;30.40;;
51292;SDS011;37377;45.186;9.778;2022-12-18T07:28:57;46.53;;;28.80;;
51292;SDS011;37377;45.186;9.778;2022-12-18T07:31:24;55.20;;;30.52;;
51292;SDS011;37377;45.186;9.778;2022-12-18T07:33:51;55.45;;;30.50;;
51292;SDS011;37377;45.186;9.778;2022-12-18T07:36:18;46.78;;;29.48;;
51292;SDS011;37377;45.186;9.778;2022-12-18T07:38:46;57.42;;;30.30;;
51292;SDS011;37377;45.186;9.778;2022-12-18T07:41:13;54.65;;;30.25;;
51292;SDS011;37377;45.186;9.778;2022-12-18T07:43:41;54.25;;;31.15;;
51292;SDS011;37377;45.186;9.778;2022-12-18T07:46:09;58.80;;;31.05;;
51292;SDS011;37377;45.186;9.778;2022-12-18T07:48:38;52.63;;;30.73;;
51292;SDS011;37377;45.186;9.778;2022-12-18T07:51:05;50.72;;;29.23;;
51292;SDS011;37377;45.186;9.778;2022-12-18T07:53:33;56.13;;;31.98;;
51292;SDS011;37377;45.186;9.778;2022-12-18T07:56:02;58.88;;;32.03;;
51292;SDS011;37377;45.186;9.778;2022-12-18T07:58:49;57.47;;;30.13;;
51292;SDS011;37377;45.186;9.778;2022-12-18T08:01:17;62.15;;;32.63;;
51292;SDS011;37377;45.186;9.778;2022-12-18T08:03:44;55.60;;;32.50;;
51292;SDS011;37377;45.186;9.778;2022-12-18T08:06:11;53.65;;;32.05;;
51292;SDS011;37377;45.186;9.778;2022-12-18T08:08:38;58.47;;;34.00;;
51292;SDS011;37377;45.186;9.778;2022-12-18T08:11:07;58.63;;;33.20;;
51292;SDS011;37377;45.186;9.778;2022-12-18T08:13:34;54.40;;;31.73;;
51292;SDS011;37377;45.186;9.778;2022-12-18T08:16:02;57.63;;;31.77;;
51292;SDS011;37377;45.186;9.778;2022-12-18T08:18:29;52.05;;;32.35;;
51292;SDS011;37377;45.186;9.778;2022-12-18T08:21:06;55.45;;;32.03;;
51292;SDS011;37377;45.186;9.778;2022-12-18T08:23:33;59.70;;;30.15;;
51292;SDS011;37377;45.186;9.778;2022-12-18T08:26:08;52.70;;;31.67;;
51292;SDS011;37377;45.186;9.778;2022-12-18T08:28:34;53.05;;;31.73;;
51292;SDS011;37377;45.186;9.778;2022-12-18T08:31:02;58.25;;;30.55;;
51292;SDS011;37377;45.186;9.778;2022-12-18T08:33:29;56.17;;;30.40;;
51292;SDS011;37377;45.186;9.778;2022-12-18T08:35:55;51.90;;;29.27;;
51292;SDS011;37377;45.186;9.778;2022-12-18T08:38:22;49.92;;;30.92;;
51292;SDS011;37377;45.186;9.778;2022-12-18T08:40:49;52.65;;;30.30;;
51292;SDS011;37377;45.186;9.778;2022-12-18T08:43:16;54.42;;;30.15;;
51292;SDS011;37377;45.186;9.778;2022-12-18T08:46:02;53.97;;;28.20;;
51292;SDS011;37377;45.186;9.778;2022-12-18T08:48:29;56.78;;;29.75;;
51292;SDS011;37377;45.186;9.778;2022-12-18T08:50:56;57.47;;;30.15;;
51292;SDS011;37377;45.186;9.778;2022-12-18T08:53:23;51.63;;;30.52;;
51292;SDS011;37377;45.186;9.778;2022-12-18T08:56:01;55.55;;;30.38;;
51292;SDS011;37377;45.186;9.778;2022-12-18T08:58:28;50.70;;;30.27;;
51292;SDS011;37377;45.186;9.778;2022-12-18T09:01:02;46.47;;;29.08;;
51292;SDS011;37377;45.186;9.778;2022-12-18T09:03:30;44.33;;;28.67;;
51292;SDS011;37377;45.186;9.778;2022-12-18T09:05:58;48.63;;;27.60;;
51292;SDS011;37377;45.186;9.778;2022-12-18T09:08:25;60.65;;;30.63;;
51292;SDS011;37377;45.186;9.778;2022-12-18T09:10:52;49.33;;;29.10;;
51292;SDS011;37377;45.186;9.778;2022-12-18T09:13:19;51.28;;;30.48;;
51292;SDS011;37377;45.186;9.778;2022-12-18T09:15:49;67.55;;;31.45;;
51292;SDS011;37377;45.186;9.778;2022-12-18T09:18:17;54.65;;;31.88;;
51292;SDS011;37377;45.186;9.778;2022-12-18T09:20:44;53.50;;;31.85;;
51292;SDS011;37377;45.186;9.778;2022-12-18T09:23:11;68.07;;;33.35;;
51292;SDS011;37377;45.186;9.778;2022-12-18T09:25:38;54.95;;;30.42;;
51292;SDS011;37377;45.186;9.778;2022-12-18T09:28:15;58.45;;;31.35;;
51292;SDS011;37377;45.186;9.778;2022-12-18T09:30:45;57.75;;;30.98;;
51292;SDS011;37377;45.186;9.778;2022-12-18T09:33:12;52.60;;;32.33;;
51292;SDS011;37377;45.186;9.778;2022-12-18T09:35:40;59.92;;;32.92;;
51292;SDS011;37377;45.186;9.778;2022-12-18T09:38:11;55.53;;;31.23;;
51292;SDS011;37377;45.186;9.778;2022-12-18T09:40:43;59.17;;;31.95;;
51292;SDS011;37377;45.186;9.778;2022-12-18T09:43:14;58.58;;;33.95;;
51292;SDS011;37377;45.186;9.778;2022-12-18T09:45:44;61.58;;;33.53;;
51292;SDS011;37377;45.186;9.778;2022-12-18T09:48:19;71.25;;;34.67;;
51292;SDS011;37377;45.186;9.778;2022-12-18T09:50:48;66.15;;;33.55;;
51292;SDS011;37377;45.186;9.778;2022-12-18T09:53:18;70.97;;;34.53;;
51292;SDS011;37377;45.186;9.778;2022-12-18T09:55:46;65.00;;;33.10;;
51292;SDS011;37377;45.186;9.778;2022-12-18T09:58:19;67.35;;;34.28;;
51292;SDS011;37377;45.186;9.778;2022-12-18T10:00:47;55.65;;;31.90;;
51292;SDS011;37377;45.186;9.778;2022-12-18T10:03:14;58.25;;;31.92;;
51292;SDS011;37377;45.186;9.778;2022-12-18T10:13:11;58.58;;;33.33;;
51292;SDS011;37377;45.186;9.778;2022-12-18T10:15:53;64.20;;;34.17;;
51292;SDS011;37377;45.186;9.778;2022-12-18T10:21:03;64.60;;;32.78;;
51292;SDS011;37377;45.186;9.778;2022-12-18T10:24:17;59.35;;;30.88;;
51292;SDS011;37377;45.186;9.778;2022-12-18T10:26:24;62.30;;;33.17;;
51292;SDS011;37377;45.186;9.778;2022-12-18T10:28:51;51.30;;;30.02;;
51292;SDS011;37377;45.186;9.778;2022-12-18T10:31:19;58.63;;;32.45;;
51292;SDS011;37377;45.186;9.778;2022-12-18T10:33:50;60.42;;;32.78;;
51292;SDS011;37377;45.186;9.778;2022-12-18T10:36:17;60.35;;;32.97;;
51292;SDS011;37377;45.186;9.778;2022-12-18T10:38:44;60.50;;;33.00;;
51292;SDS011;37377;45.186;9.778;2022-12-18T10:43:43;58.22;;;31.77;;
51292;SDS011;37377;45.186;9.778;2022-12-18T10:51:07;59.00;;;33.67;;
51292;SDS011;37377;45.186;9.778;2022-12-18T10:53:38;64.97;;;34.60;;
51292;SDS011;37377;45.186;9.778;2022-12-18T10:56:06;70.25;;;35.60;;
51292;SDS011;37377;45.186;9.778;2022-12-18T10:58:34;57.00;;;31.55;;
51292;SDS011;37377;45.186;9.778;2022-12-18T11:01:06;50.95;;;31.33;;
51292;SDS011;37377;45.186;9.778;2022-12-18T11:03:41;58.22;;;30.63;;
51292;SDS011;37377;45.186;9.778;2022-12-18T11:08:35;53.53;;;31.70;;
51292;SDS011;37377;45.186;9.778;2022-12-18T11:11:04;57.58;;;31.98;;
51292;SDS011;37377;45.186;9.778;2022-12-18T11:13:33;58.17;;;31.42;;
51292;SDS011;37377;45.186;9.778;2022-12-18T11:16:01;55.05;;;31.17;;
51292;SDS011;37377;45.186;9.778;2022-12-18T11:18:34;55.90;;;33.42;;
51292;SDS011;37377;45.186;9.778;2022-12-18T11:21:09;67.07;;;33.15;;
51292;SDS011;37377;45.186;9.778;2022-12-18T11:23:44;61.13;;;33.80;;
51292;SDS011;37377;45.186;9.778;2022-12-18T11:31:16;62.17;;;34.00;;
51292;SDS011;37377;45.186;9.778;2022-12-18T11:33:49;64.07;;;35.35;;
51292;SDS011;37377;45.186;9.778;2022-12-18T11:36:44;59.88;;;35.85;;
51292;SDS011;37377;45.186;9.778;2022-12-18T11:41:48;69.03;;;39.80;;
51292;SDS011;37377;45.186;9.778;2022-12-18T11:49:49;69.38;;;40.80;;
51292;SDS011;37377;45.186;9.778;2022-12-18T11:54:43;71.53;;;40.53;;
51292;SDS011;37377;45.186;9.778;2022-12-18T12:02:29;67.23;;;39.73;;
51292;SDS011;37377;45.186;9.778;2022-12-18T12:08:01;69.35;;;38.83;;
51292;SDS011;37377;45.186;9.778;2022-12-18T12:15:56;58.55;;;35.40;;
51292;SDS011;37377;45.186;9.778;2022-12-18T12:21:10;57.03;;;33.90;;
51292;SDS011;37377;45.186;9.778;2022-12-18T12:26:12;63.30;;;35.13;;
51292;SDS011;37377;45.186;9.778;2022-12-18T12:39:09;69.38;;;39.55;;
51292;SDS011;37377;45.186;9.778;2022-12-18T12:44:33;68.00;;;38.05;;
51292;SDS011;37377;45.186;9.778;2022-12-18T12:47:04;67.45;;;38.80;;
51292;SDS011;37377;45.186;9.778;2022-12-18T12:49:38;66.25;;;39.53;;
51292;SDS011;37377;45.186;9.778;2022-12-18T12:54:59;74.68;;;40.95;;
51292;SDS011;37377;45.186;9.778;2022-12-18T13:08:11;63.10;;;36.08;;
51292;SDS011;37377;45.186;9.778;2022-12-18T13:10:39;67.38;;;37.88;;
51292;SDS011;37377;45.186;9.778;2022-12-18T13:13:09;63.83;;;37.75;;
51292;SDS011;37377;45.186;9.778;2022-12-18T13:20:43;69.82;;;39.40;;
51292;SDS011;37377;45.186;9.778;2022-12-18T13:25:47;63.13;;;35.67;;
51292;SDS011;37377;45.186;9.778;2022-12-18T13:31:00;62.92;;;39.08;;
51292;SDS011;37377;45.186;9.778;2022-12-18T13:38:37;63.45;;;36.97;;
51292;SDS011;37377;45.186;9.778;2022-12-18T13:41:26;70.65;;;38.60;;
51292;SDS011;37377;45.186;9.778;2022-12-18T13:43:52;67.35;;;38.83;;
51292;SDS011;37377;45.186;9.778;2022-12-18T13:46:29;69.07;;;39.88;;
51292;SDS011;37377;45.186;9.778;2022-12-18T13:51:24;67.68;;;40.63;;
51292;SDS011;37377;45.186;9.778;2022-12-18T13:53:59;74.81;;;40.84;;
51292;SDS011;37377;45.186;9.778;2022-12-18T13:56:28;69.60;;;39.13;;
51292;SDS011;37377;45.186;9.778;2022-12-18T13:59:17;65.60;;;39.67;;
51292;SDS011;37377;45.186;9.778;2022-12-18T14:02:00;68.57;;;39.45;;
51292;SDS011;37377;45.186;9.778;2022-12-18T14:04:30;67.82;;;38.13;;
51292;SDS011;37377;45.186;9.778;2022-12-18T14:09:26;69.38;;;39.03;;
51292;SDS011;37377;45.186;9.778;2022-12-18T14:11:55;78.80;;;42.65;;
51292;SDS011;37377;45.186;9.778;2022-12-18T14:14:42;69.10;;;39.50;;
51292;SDS011;37377;45.186;9.778;2022-12-18T14:17:10;70.93;;;40.08;;
51292;SDS011;37377;45.186;9.778;2022-12-18T14:19:40;77.07;;;40.22;;
51292;SDS011;37377;45.186;9.778;2022-12-18T14:22:18;84.57;;;41.27;;
51292;SDS011;37377;45.186;9.778;2022-12-18T14:24:45;86.72;;;45.17;;
51292;SDS011;37377;45.186;9.778;2022-12-18T14:27:13;81.80;;;44.47;;
51292;SDS011;37377;45.186;9.778;2022-12-18T14:29:45;76.82;;;43.03;;
51292;SDS011;37377;45.186;9.778;2022-12-18T14:32:13;77.32;;;43.67;;
51292;SDS011;37377;45.186;9.778;2022-12-18T14:34:45;74.78;;;42.50;;
51292;SDS011;37377;45.186;9.778;2022-12-18T14:37:13;82.90;;;43.90;;
51292;SDS011;37377;45.186;9.778;2022-12-18T14:39:40;75.63;;;40.83;;
51292;SDS011;37377;45.186;9.778;2022-12-18T14:42:18;78.72;;;41.75;;
51292;SDS011;37377;45.186;9.778;2022-12-18T14:44:45;80.45;;;40.17;;
51292;SDS011;37377;45.186;9.778;2022-12-18T14:47:31;85.38;;;44.17;;
51292;SDS011;37377;45.186;9.778;2022-12-18T14:49:58;85.15;;;44.60;;
51292;SDS011;37377;45.186;9.778;2022-12-18T14:52:27;85.80;;;43.83;;
51292;SDS011;37377;45.186;9.778;2022-12-18T14:54:54;76.90;;;43.42;;
51292;SDS011;37377;45.186;9.778;2022-12-18T14:57:25;78.93;;;42.35;;
51292;SDS011;37377;45.186;9.778;2022-12-18T14:59:52;84.70;;;43.75;;
51292;SDS011;37377;45.186;9.778;2022-12-18T15:02:23;81.22;;;43.28;;
51292;SDS011;37377;45.186;9.778;2022-12-18T15:05:00;76.82;;;43.42;;
51292;SDS011;37377;45.186;9.778;2022-12-18T15:07:33;87.72;;;45.33;;
51292;SDS011;37377;45.186;9.778;2022-12-18T15:10:13;88.50;;;45.42;;
51292;SDS011;37377;45.186;9.778;2022-12-18T15:12:44;85.85;;;44.22;;
51292;SDS011;37377;45.186;9.778;2022-12-18T15:17:57;90.38;;;46.33;;
51292;SDS011;37377;45.186;9.778;2022-12-18T15:20:24;83.18;;;42.17;;
51292;SDS011;37377;45.186;9.778;2022-12-18T15:22:51;82.03;;;42.75;;
51292;SDS011;37377;45.186;9.778;2022-12-18T15:25:55;86.93;;;45.33;;
51292;SDS011;37377;45.186;9.778;2022-12-18T15:28:24;89.13;;;46.30;;
51292;SDS011;37377;45.186;9.778;2022-12-18T15:31:05;81.85;;;44.67;;
51292;SDS011;37377;45.186;9.778;2022-12-18T15:33:34;93.95;;;48.67;;
51292;SDS011;37377;45.186;9.778;2022-12-18T15:36:08;91.70;;;46.50;;
51292;SDS011;37377;45.186;9.778;2022-12-18T15:38:35;83.38;;;43.65;;
51292;SDS011;37377;45.186;9.778;2022-12-18T15:41:02;86.15;;;43.08;;
51292;SDS011;37377;45.186;9.778;2022-12-18T15:43:39;88.75;;;42.50;;
51292;SDS011;37377;45.186;9.778;2022-12-18T15:46:09;91.78;;;43.45;;
51292;SDS011;37377;45.186;9.778;2022-12-18T15:48:41;83.93;;;40.75;;
51292;SDS011;37377;45.186;9.778;2022-12-18T15:51:11;78.10;;;41.50;;
51292;SDS011;37377;45.186;9.778;2022-12-18T15:53:40;78.05;;;41.95;;
51292;SDS011;37377;45.186;9.778;2022-12-18T15:56:10;77.15;;;40.13;;
51292;SDS011;37377;45.186;9.778;2022-12-18T15:59:17;75.38;;;38.75;;
51292;SDS011;37377;45.186;9.778;2022-12-18T16:01:45;86.00;;;41.05;;
51292;SDS011;37377;45.186;9.778;2022-12-18T16:04:13;86.93;;;44.03;;
51292;SDS011;37377;45.186;9.778;2022-12-18T16:06:40;93.60;;;44.92;;
51292;SDS011;37377;45.186;9.778;2022-12-18T16:09:27;91.93;;;44.83;;
51292;SDS011;37377;45.186;9.778;2022-12-18T16:11:54;90.88;;;44.60;;
51292;SDS011;37377;45.186;9.778;2022-12-18T16:14:28;96.30;;;46.05;;
51292;SDS011;37377;45.186;9.778;2022-12-18T16:16:59;105.22;;;44.88;;
51292;SDS011;37377;45.186;9.778;2022-12-18T16:19:27;94.28;;;45.75;;
51292;SDS011;37377;45.186;9.778;2022-12-18T16:21:54;101.70;;;47.58;;
51292;SDS011;37377;45.186;9.778;2022-12-18T16:24:22;97.68;;;46.63;;
51292;SDS011;37377;45.186;9.778;2022-12-18T16:26:49;98.32;;;45.25;;
51292;SDS011;37377;45.186;9.778;2022-12-18T16:29:18;94.17;;;44.40;;
51292;SDS011;37377;45.186;9.778;2022-12-18T16:31:45;93.68;;;44.60;;
51292;SDS011;37377;45.186;9.778;2022-12-18T16:34:21;91.13;;;43.60;;
51292;SDS011;37377;45.186;9.778;2022-12-18T16:36:52;93.07;;;45.70;;
51292;SDS011;37377;45.186;9.778;2022-12-18T16:39:28;87.32;;;43.58;;
51292;SDS011;37377;45.186;9.778;2022-12-18T16:41:56;90.68;;;46.20;;
51292;SDS011;37377;45.186;9.778;2022-12-18T16:44:24;89.15;;;44.53;;
51292;SDS011;37377;45.186;9.778;2022-12-18T16:46:51;100.00;;;46.17;;
51292;SDS011;37377;45.186;9.778;2022-12-18T16:49:18;95.25;;;47.08;;
51292;SDS011;37377;45.186;9.778;2022-12-18T16:51:47;103.07;;;45.90;;
51292;SDS011;37377;45.186;9.778;2022-12-18T16:54:14;100.57;;;50.08;;